Greenspond, Canada
Current Conditions -  °F | °C
As of 6:00 PM on Monday 22 Dec 2014 (Local Time) from CYQX Reporting Station
Overcast Overcast  
Wind Chill: 25°   Ceiling: 1400
Heat Index: 25°   Visibility: 15mi
Dew Point: 19°   Wind: 0mph
Humidity: 80%   Direction: NA
Pressure: 30.42"   Gusts: NA
Location:  49.05°N, 53.58°W
Report Text: CYQX 222100Z 00000KT 15SM OVC014 M04/M07 A3042 RMK SC8 SLP312
Loading
Personal Weather Stations






























Interactive Weather Map New forecast layout! Learn more

10-Day Weather Forecast

Advertisements
Track Severe Weather on mobile